map of SCK home
SCK - Airport
Location
City:  Stockton, California, United States
Name:Stockton Metropolitan Airport
ICAO:KSCK
IATA:SCK
FAA LID:SCK

Details
Type:Airport (Part 139 Class I)
Use:Public/Civil
Latitude:3753'39"N (37.894167)
Longitude:12114'18"W (-121.238305)
Datum:WGS 1984
Elevation:33 ft (10 m)
Variation:13.30E (WMM2015 magnetic declination)
-0.10 annual change
Runways:2
Longest:10649 × 150 ft (3246 × 45.5 m), paved

Time
Time Zone:UTC-8 (DST-7)
Local Time:

Weather
METAR:KSCK 262355Z 31008KT 10SM CLR 26/11 A2989 RMK AO2 SLP121 T02560106 10267 20194 56020
TAF:KSCK 262320Z 2700/2724 29012KT P6SM BKN250= TAF KTRM 262320Z 2700/2724 14009KT P6SM SCT200
FM270100 33015G25KT P6SM SKC
FM271100 32011KT P6SM SKC
FM271600 VRB06KT P6SM SKC
FM272300 29010KT P6SM SKC

Related Locations
Nearby:
Farthest:FTU: 11310 mi / 18202 km
Tolagnaro [Maurillac Airport (Fort Dauphin Airport)], MG

Find:

   beyond  
but within

Other Information
Maps:
NOTAMs:
Links:
Sources:

  
flag of United States
flag of California
  

Airport Diagram

Airport diagram for SCK

Airport diagram PDF

Sectional Chart

Flight Planning
at skyvector.com

Satellite Image

Google Maps Satellite view

 

Copyright © 2004-2018 Karl L. Swartz. All rights reserved.
The Great Circle Mapper name and logo are trademarks of the Great Circle Mapper.
All other trademarks mentioned herein belong to their respective owners.
Please see credits for attibutions and further copyright information.

  Follow gcmap on Facebook Follow gcmap on Twitter Follow gcmap on Google+ GCmap on LinkedIn

hCard Microformat

Geo Microformat